createdAt,value
2018-02-21T00:00:19.740Z,42.57
2018-02-21T00:02:52.276Z,46.50
2018-02-21T00:05:24.891Z,40.33
2018-02-21T00:07:57.398Z,42.70
2018-02-21T00:10:29.924Z,42.37
2018-02-21T00:13:03.006Z,44.07
2018-02-21T00:15:35.546Z,40.07
2018-02-21T00:18:08.083Z,44.10
2018-02-21T00:20:40.613Z,44.87
2018-02-21T00:23:13.139Z,45.63
2018-02-21T00:25:46.740Z,45.90
2018-02-21T00:28:19.308Z,39.67
2018-02-21T00:30:51.825Z,42.13
2018-02-21T00:33:24.337Z,43.77
2018-02-21T00:35:56.861Z,41.33
2018-02-21T00:38:29.357Z,42.97
2018-02-21T00:41:02.282Z,40.87
2018-02-21T00:43:34.823Z,43.60
2018-02-21T00:46:07.365Z,42.73
2018-02-21T00:48:39.880Z,39.07
2018-02-21T00:51:13.029Z,45.23
2018-02-21T00:53:45.594Z,42.50
2018-02-21T00:56:18.120Z,39.30
2018-02-21T00:58:50.623Z,42.37
2018-02-21T01:01:23.549Z,44.80
2018-02-21T01:03:56.103Z,40.73
2018-02-21T01:06:28.637Z,40.30
2018-02-21T01:09:01.140Z,37.90
2018-02-21T01:11:33.658Z,46.50
2018-02-21T01:14:06.568Z,44.17
2018-02-21T01:16:39.499Z,39.23
2018-02-21T01:19:12.308Z,42.97
2018-02-21T01:21:44.887Z,39.57
2018-02-21T01:24:17.400Z,41.67
2018-02-21T01:26:49.937Z,41.93
2018-02-21T01:29:22.435Z,42.27
2018-02-21T01:31:55.063Z,39.83
2018-02-21T01:34:27.898Z,40.77
2018-02-21T01:37:00.434Z,38.70
2018-02-21T01:39:33.141Z,42.57
2018-02-21T01:42:05.673Z,43.30
2018-02-21T01:44:38.246Z,42.07
2018-02-21T01:47:10.802Z,44.03
2018-02-21T01:49:43.304Z,43.33
2018-02-21T01:52:15.913Z,42.53
2018-02-21T01:54:48.419Z,43.03
2018-02-21T01:57:20.952Z,42.40
2018-02-21T01:59:53.632Z,39.47
2018-02-21T02:02:26.165Z,43.97
2018-02-21T02:04:58.855Z,38.20
2018-02-21T02:07:31.546Z,47.93
2018-02-21T02:10:04.058Z,41.37
2018-02-21T02:12:36.603Z,41.90
2018-02-21T02:15:09.102Z,40.10
2018-02-21T02:17:41.673Z,51.70
2018-02-21T02:20:14.209Z,40.20
2018-02-21T02:22:46.768Z,46.43
2018-02-21T02:25:19.277Z,39.67
2018-02-21T02:27:51.804Z,39.40
2018-02-21T02:30:24.360Z,44.53
2018-02-21T02:32:56.859Z,44.40
2018-02-21T02:35:29.358Z,44.10
2018-02-21T02:38:01.897Z,42.80
2018-02-21T02:40:34.401Z,48.00
2018-02-21T02:43:06.961Z,55.60
2018-02-21T02:45:39.480Z,44.63
2018-02-21T02:48:12.038Z,40.97
2018-02-21T02:50:44.577Z,39.40
2018-02-21T02:53:17.124Z,41.77
2018-02-21T02:55:49.803Z,41.67
2018-02-21T02:58:22.375Z,53.63
2018-02-21T03:00:55.002Z,50.30
2018-02-21T03:03:27.535Z,40.20
2018-02-21T03:06:00.039Z,41.63
2018-02-21T03:08:32.570Z,44.17
2018-02-21T03:11:05.083Z,39.57
2018-02-21T03:13:37.612Z,41.00
2018-02-21T03:16:10.131Z,43.53
2018-02-21T03:18:42.656Z,43.73
2018-02-21T03:21:15.172Z,45.53
2018-02-21T03:23:47.699Z,49.57
2018-02-21T03:26:20.204Z,47.90
2018-02-21T03:28:52.729Z,44.07
2018-02-21T03:31:25.273Z,42.30
2018-02-21T03:33:57.781Z,45.03
2018-02-21T03:36:30.317Z,37.20
2018-02-21T03:39:02.828Z,43.57
2018-02-21T03:41:35.360Z,39.63
2018-02-21T03:44:07.865Z,40.60
2018-02-21T03:46:40.479Z,43.17
2018-02-21T03:49:13.007Z,38.27
2018-02-21T03:51:45.565Z,39.07
2018-02-21T03:54:18.085Z,37.93
2018-02-21T03:56:50.612Z,40.73
2018-02-21T03:59:23.112Z,36.10
2018-02-21T04:01:55.660Z,41.47
2018-02-21T04:04:28.165Z,39.90
2018-02-21T04:07:00.701Z,37.60
2018-02-21T04:09:33.641Z,43.77
2018-02-21T04:12:06.166Z,43.40
2018-02-21T04:14:38.674Z,40.40
2018-02-21T04:17:11.216Z,42.57
2018-02-21T04:19:43.729Z,35.83
2018-02-21T04:22:16.277Z,42.03
2018-02-21T04:24:48.783Z,40.33
2018-02-21T04:27:21.346Z,42.97
2018-02-21T04:29:53.862Z,37.03
2018-02-21T04:32:26.394Z,39.53
2018-02-21T04:34:58.916Z,46.83
2018-02-21T04:37:31.443Z,40.93
2018-02-21T04:40:03.950Z,39.53
2018-02-21T04:42:36.478Z,37.20
2018-02-21T04:45:08.991Z,44.43
2018-02-21T04:47:41.514Z,44.20
2018-02-21T04:50:14.015Z,36.53
2018-02-21T04:52:46.597Z,40.33
2018-02-21T04:55:24.850Z,39.63
2018-02-21T04:58:05.932Z,40.77
2018-02-21T05:00:38.471Z,43.60
2018-02-21T05:03:11.090Z,40.07
2018-02-21T05:05:43.588Z,42.77
2018-02-21T05:08:16.119Z,42.20
2018-02-21T05:10:48.625Z,42.73
2018-02-21T05:13:21.149Z,37.70
2018-02-21T05:15:53.659Z,38.53
2018-02-21T05:18:26.185Z,39.10
2018-02-21T05:20:58.693Z,41.90
2018-02-21T05:23:31.236Z,38.73
2018-02-21T05:26:03.754Z,40.43
2018-02-21T05:28:36.278Z,40.03
2018-02-21T05:31:09.601Z,39.63
2018-02-21T05:33:42.121Z,42.67
2018-02-21T05:36:14.623Z,38.13
2018-02-21T05:38:47.150Z,44.90
2018-02-21T05:41:19.661Z,42.40
2018-02-21T05:43:52.185Z,45.10
2018-02-21T05:46:24.680Z,37.43
2018-02-21T05:48:57.210Z,40.20
2018-02-21T05:51:29.707Z,42.93
2018-02-21T05:54:02.248Z,40.90
2018-02-21T05:56:34.754Z,41.47
2018-02-21T05:59:07.296Z,41.93
2018-02-21T06:01:39.807Z,42.10
2018-02-21T06:04:12.445Z,43.47
2018-02-21T06:06:44.973Z,40.33
2018-02-21T06:09:17.515Z,42.47
2018-02-21T06:11:50.093Z,41.10
2018-02-21T06:14:22.617Z,46.57
2018-02-21T06:16:55.112Z,46.03
2018-02-21T06:19:27.642Z,44.13
2018-02-21T06:22:00.160Z,41.70
2018-02-21T06:24:32.700Z,46.20
2018-02-21T06:27:05.199Z,42.07
2018-02-21T06:29:37.748Z,46.33
2018-02-21T06:32:10.276Z,41.40
2018-02-21T06:34:42.810Z,46.30
2018-02-21T06:37:15.320Z,40.00
2018-02-21T06:39:47.858Z,44.13
2018-02-21T06:42:20.373Z,45.10
2018-02-21T06:44:52.910Z,41.60
2018-02-21T06:47:25.460Z,43.13
2018-02-21T06:49:57.977Z,43.23
2018-02-21T06:52:30.526Z,38.83
2018-02-21T06:55:03.038Z,38.90
2018-02-21T06:57:35.594Z,39.13
2018-02-21T07:00:08.105Z,51.27
2018-02-21T07:02:40.637Z,49.87
2018-02-21T07:05:13.200Z,50.37
2018-02-21T07:07:45.725Z,45.17
2018-02-21T07:10:18.234Z,54.97
2018-02-21T07:12:50.777Z,50.70
2018-02-21T07:15:23.335Z,44.87
2018-02-21T07:17:55.838Z,40.10
2018-02-21T07:20:28.341Z,40.07
2018-02-21T07:23:00.860Z,41.63
2018-02-21T07:25:33.377Z,42.60
2018-02-21T07:28:05.904Z,43.73
2018-02-21T07:30:38.414Z,50.67
2018-02-21T07:33:10.939Z,46.30
2018-02-21T07:35:43.446Z,44.83
2018-02-21T07:38:15.981Z,37.83
2018-02-21T07:40:48.500Z,39.73
2018-02-21T07:43:21.026Z,40.83
2018-02-21T07:45:53.553Z,38.73
2018-02-21T07:48:26.087Z,37.37
2018-02-21T07:50:58.579Z,37.87
2018-02-21T07:53:31.104Z,42.97
2018-02-21T07:56:03.620Z,37.60
2018-02-21T07:58:36.156Z,43.00
2018-02-21T08:01:08.670Z,42.97
2018-02-21T08:03:41.199Z,44.40
2018-02-21T08:06:13.683Z,51.27
2018-02-21T08:08:46.221Z,45.27
2018-02-21T08:11:18.725Z,41.70
2018-02-21T08:13:51.238Z,39.27
2018-02-21T08:16:23.742Z,39.87
2018-02-21T08:18:56.264Z,38.03
2018-02-21T08:21:28.763Z,38.07
2018-02-21T08:24:01.319Z,38.03
2018-02-21T08:26:33.812Z,39.03
2018-02-21T08:29:06.327Z,44.97
2018-02-21T08:31:38.838Z,35.13
2018-02-21T08:34:11.368Z,41.33
2018-02-21T08:36:43.863Z,39.47
2018-02-21T08:39:16.374Z,38.97
2018-02-21T08:41:48.891Z,38.00
2018-02-21T08:44:21.410Z,37.67
2018-02-21T08:46:53.924Z,32.77
2018-02-21T08:49:26.478Z,35.80
2018-02-21T08:51:58.977Z,35.43
2018-02-21T08:54:31.498Z,43.50
2018-02-21T08:57:04.010Z,37.70
2018-02-21T08:59:36.537Z,39.10
2018-02-21T09:02:09.052Z,39.90
2018-02-21T09:04:41.593Z,36.57
2018-02-21T09:07:14.092Z,43.13
2018-02-21T09:09:46.618Z,37.50
2018-02-21T09:12:19.120Z,40.40
2018-02-21T09:14:51.632Z,38.03
2018-02-21T09:17:24.137Z,40.63
2018-02-21T09:19:56.652Z,40.13
2018-02-21T09:22:29.153Z,36.77
2018-02-21T09:25:01.684Z,36.07
2018-02-21T09:27:34.230Z,30.90
2018-02-21T09:30:06.770Z,34.90
2018-02-21T09:32:39.264Z,33.97
2018-02-21T09:35:11.797Z,30.87
2018-02-21T09:37:44.299Z,35.67
2018-02-21T09:40:16.827Z,34.37
2018-02-21T09:42:49.326Z,32.70
2018-02-21T09:45:21.847Z,34.80
2018-02-21T09:47:54.352Z,33.93
2018-02-21T09:50:26.874Z,33.73
2018-02-21T09:52:59.401Z,32.97
2018-02-21T09:55:31.935Z,30.13
2018-02-21T09:58:04.453Z,29.53
2018-02-21T10:00:36.981Z,31.63
2018-02-21T10:03:09.488Z,30.47
2018-02-21T10:05:42.004Z,31.43
2018-02-21T10:08:14.525Z,31.97
2018-02-21T10:10:47.060Z,31.80
2018-02-21T10:13:19.554Z,28.17
2018-02-21T10:15:52.088Z,29.73
2018-02-21T10:18:24.589Z,28.27
2018-02-21T10:20:57.110Z,33.50
2018-02-21T10:23:29.608Z,30.43
2018-02-21T10:26:02.119Z,32.57
2018-02-21T10:28:34.632Z,30.90
2018-02-21T10:31:07.164Z,29.97
2018-02-21T10:33:39.666Z,25.53
2018-02-21T10:36:12.203Z,28.73
2018-02-21T10:38:44.714Z,32.57
2018-02-21T10:41:17.232Z,27.77
2018-02-21T10:43:49.772Z,29.73
2018-02-21T10:46:22.277Z,30.03
2018-02-21T10:48:54.800Z,30.63
2018-02-21T10:51:27.312Z,28.90
2018-02-21T10:53:59.913Z,29.07
2018-02-21T10:56:32.398Z,28.17
2018-02-21T10:59:04.924Z,29.23
2018-02-21T11:01:37.442Z,29.43
2018-02-21T11:04:10.015Z,26.37
2018-02-21T11:06:42.521Z,27.13
2018-02-21T11:09:15.037Z,25.83
2018-02-21T11:11:47.547Z,27.23
2018-02-21T11:14:20.069Z,25.10
2018-02-21T11:16:52.591Z,27.63
2018-02-21T11:19:25.116Z,24.03
2018-02-21T11:21:57.621Z,27.33
2018-02-21T11:24:30.250Z,26.70
2018-02-21T11:27:02.750Z,24.47
2018-02-21T11:29:35.277Z,26.40
2018-02-21T11:32:07.836Z,25.17
2018-02-21T11:34:40.363Z,24.37
2018-02-21T11:37:12.873Z,27.30
2018-02-21T11:39:45.405Z,25.50
2018-02-21T11:42:17.896Z,25.57
2018-02-21T11:44:50.426Z,26.00
2018-02-21T11:47:22.931Z,24.33
2018-02-21T11:49:56.414Z,20.77
2018-02-21T11:52:28.927Z,24.00
2018-02-21T11:55:01.447Z,23.50
2018-02-21T11:57:33.950Z,20.47
2018-02-21T12:00:06.481Z,19.10
2018-02-21T12:02:38.988Z,20.30
2018-02-21T12:05:11.529Z,19.10
2018-02-21T12:07:44.053Z,21.10
2018-02-21T12:10:16.611Z,20.63
2018-02-21T12:12:49.126Z,19.53
2018-02-21T12:15:21.655Z,22.10
2018-02-21T12:17:54.148Z,20.30
2018-02-21T12:20:26.679Z,18.10
2018-02-21T12:22:59.182Z,18.30
2018-02-21T12:25:31.718Z,18.40
2018-02-21T12:28:04.220Z,19.17
2018-02-21T12:30:36.740Z,15.40
2018-02-21T12:33:09.251Z,17.87
2018-02-21T12:35:41.784Z,17.53
2018-02-21T12:38:14.288Z,17.60
2018-02-21T12:40:52.500Z,17.07
2018-02-21T12:43:25.092Z,16.67
2018-02-21T12:45:57.638Z,17.27
2018-02-21T12:48:30.153Z,15.87
2018-02-21T12:51:02.686Z,25.40
2018-02-21T12:53:35.227Z,24.37
2018-02-21T12:56:07.747Z,25.13
2018-02-21T12:58:40.256Z,23.87
2018-02-21T13:01:12.791Z,15.67
2018-02-21T13:03:45.313Z,16.67
2018-02-21T13:06:17.835Z,18.83
2018-02-21T13:08:50.340Z,16.30
2018-02-21T13:11:22.862Z,17.50
2018-02-21T13:13:55.381Z,17.53
2018-02-21T13:16:27.922Z,16.57
2018-02-21T13:19:00.467Z,16.03
2018-02-21T13:21:33.020Z,17.17
2018-02-21T13:24:05.519Z,16.43
2018-02-21T13:26:38.041Z,18.83
2018-02-21T13:29:10.575Z,16.60
2018-02-21T13:31:43.154Z,16.50
2018-02-21T13:34:15.671Z,14.27
2018-02-21T13:36:48.204Z,17.33
2018-02-21T13:39:20.721Z,17.43
2018-02-21T13:41:53.247Z,18.77
2018-02-21T13:44:25.766Z,20.67
2018-02-21T13:46:58.285Z,15.37
2018-02-21T13:49:30.803Z,17.00
2018-02-21T13:52:03.321Z,17.20
2018-02-21T13:54:35.829Z,15.87
2018-02-21T13:57:08.362Z,17.73
2018-02-21T13:59:40.864Z,15.27
2018-02-21T14:02:13.389Z,16.73
2018-02-21T14:04:45.890Z,15.80
2018-02-21T14:07:18.423Z,16.80
2018-02-21T14:09:50.987Z,17.50
2018-02-21T14:12:23.516Z,15.50
2018-02-21T14:14:56.020Z,15.23
2018-02-21T14:17:28.592Z,17.13
2018-02-21T14:20:01.064Z,15.47
2018-02-21T14:22:33.583Z,17.20
2018-02-21T14:25:06.082Z,18.13
2018-02-21T14:27:38.600Z,14.80
2018-02-21T14:30:11.109Z,14.20
2018-02-21T14:32:43.601Z,14.37
2018-02-21T14:35:16.137Z,16.87
2018-02-21T14:37:48.627Z,15.53
2018-02-21T14:40:21.146Z,15.97
2018-02-21T14:42:53.652Z,15.60
2018-02-21T14:45:26.178Z,16.00
2018-02-21T14:47:58.697Z,14.30
2018-02-21T14:50:31.220Z,16.73
2018-02-21T14:53:03.746Z,15.50
2018-02-21T14:55:36.261Z,15.20
2018-02-21T14:58:08.774Z,15.17
2018-02-21T15:00:41.305Z,21.77
2018-02-21T15:03:13.818Z,35.47
2018-02-21T15:05:46.336Z,23.57
2018-02-21T15:08:18.837Z,16.43
2018-02-21T15:10:51.371Z,18.13
2018-02-21T15:13:23.897Z,14.07
2018-02-21T15:15:56.431Z,13.67
2018-02-21T15:18:28.933Z,14.73
2018-02-21T15:21:01.461Z,13.50
2018-02-21T15:23:33.977Z,14.20
2018-02-21T15:26:06.517Z,15.43
2018-02-21T15:28:39.036Z,15.33
2018-02-21T15:31:11.570Z,15.67
2018-02-21T15:33:44.080Z,16.27
2018-02-21T15:36:16.608Z,15.63
2018-02-21T15:38:49.188Z,16.23
2018-02-21T15:41:21.738Z,15.60
2018-02-21T15:43:54.246Z,16.77
2018-02-21T15:46:26.801Z,16.57
2018-02-21T15:48:59.313Z,15.67
2018-02-21T15:51:31.853Z,13.90
2018-02-21T15:54:04.355Z,16.23
2018-02-21T15:56:36.881Z,17.33
2018-02-21T15:59:09.401Z,17.17
2018-02-21T16:01:41.954Z,14.33
2018-02-21T16:04:14.487Z,16.10
2018-02-21T16:06:47.013Z,16.60
2018-02-21T16:09:19.514Z,18.63
2018-02-21T16:11:52.041Z,13.00
2018-02-21T16:14:24.575Z,16.43
2018-02-21T16:16:57.103Z,15.50
2018-02-21T16:19:29.618Z,14.67
2018-02-21T16:22:02.170Z,14.73
2018-02-21T16:24:34.680Z,15.63
2018-02-21T16:27:07.230Z,18.20
2018-02-21T16:29:39.735Z,15.20
2018-02-21T16:34:51.155Z,15.30
2018-02-21T16:37:23.698Z,16.13
2018-02-21T16:39:56.217Z,16.00
2018-02-21T16:42:28.745Z,14.17
2018-02-21T16:45:01.252Z,21.60
2018-02-21T16:47:33.784Z,16.43
2018-02-21T16:50:06.299Z,18.23
2018-02-21T16:52:38.819Z,16.27
2018-02-21T16:55:11.329Z,15.47
2018-02-21T16:57:43.848Z,16.23
2018-02-21T17:00:16.369Z,14.77
2018-02-21T17:02:54.349Z,14.30
2018-02-21T17:05:26.874Z,15.13
2018-02-21T17:07:59.403Z,17.10
2018-02-21T17:10:31.903Z,19.13
2018-02-21T17:13:04.425Z,19.43
2018-02-21T17:15:36.928Z,17.83
2018-02-21T17:18:09.452Z,17.83
2018-02-21T17:20:41.981Z,17.67
2018-02-21T17:23:14.517Z,19.70
2018-02-21T17:25:47.022Z,19.80
2018-02-21T17:28:19.566Z,18.30
2018-02-21T17:30:52.064Z,17.67
2018-02-21T17:33:24.596Z,20.00
2018-02-21T17:35:57.092Z,16.13
2018-02-21T17:38:29.624Z,19.53
2018-02-21T17:44:08.885Z,21.33
2018-02-21T17:46:41.410Z,19.50
2018-02-21T17:49:13.916Z,19.00
2018-02-21T17:51:46.441Z,20.40
2018-02-21T17:54:18.942Z,18.83
2018-02-21T17:56:51.486Z,21.60
2018-02-21T17:59:23.982Z,18.07
2018-02-21T18:01:56.510Z,19.73
2018-02-21T18:04:29.006Z,18.23
2018-02-21T18:07:01.528Z,17.23
2018-02-21T18:09:34.048Z,18.93
2018-02-21T18:12:06.579Z,18.10
2018-02-21T18:14:39.092Z,22.47
2018-02-21T18:17:11.627Z,19.90
2018-02-21T18:19:44.129Z,19.07
2018-02-21T18:22:16.683Z,21.50
2018-02-21T18:24:49.238Z,20.53
2018-02-21T18:27:21.792Z,20.67
2018-02-21T18:29:54.335Z,20.87
2018-02-21T18:32:26.860Z,20.07
2018-02-21T18:34:59.366Z,19.70
2018-02-21T18:37:31.892Z,22.43
2018-02-21T18:40:04.447Z,20.10
2018-02-21T18:42:36.978Z,21.93
2018-02-21T18:45:09.475Z,20.60
2018-02-21T18:47:42.004Z,20.97
2018-02-21T18:50:18.337Z,24.10
2018-02-21T18:52:50.879Z,21.30
2018-02-21T18:55:23.391Z,21.83
2018-02-21T18:57:55.928Z,18.40
2018-02-21T19:00:28.441Z,22.73
2018-02-21T19:03:01.031Z,19.33
2018-02-21T19:05:33.540Z,21.43
2018-02-21T19:08:06.096Z,19.87
2018-02-21T19:10:38.606Z,22.07
2018-02-21T19:13:11.121Z,20.57
2018-02-21T19:15:43.624Z,19.47
2018-02-21T19:18:16.149Z,21.20
2018-02-21T19:20:48.651Z,24.23
2018-02-21T19:23:21.177Z,18.63
2018-02-21T19:25:53.687Z,20.83
2018-02-21T19:28:26.228Z,20.97
2018-02-21T19:30:58.736Z,21.30
2018-02-21T19:33:31.250Z,22.17
2018-02-21T19:36:03.756Z,22.83
2018-02-21T19:38:36.290Z,21.87
2018-02-21T19:41:08.824Z,21.27
2018-02-21T19:43:41.410Z,20.07
2018-02-21T19:46:13.916Z,20.37
2018-02-21T19:48:46.465Z,22.43
2018-02-21T19:51:18.975Z,23.30
2018-02-21T19:53:51.510Z,21.23
2018-02-21T19:56:24.012Z,23.70
2018-02-21T19:58:56.703Z,20.60
2018-02-21T20:01:29.183Z,21.00
2018-02-21T20:04:01.705Z,21.87
2018-02-21T20:06:34.274Z,21.43
2018-02-21T20:09:06.937Z,19.93
2018-02-21T20:11:39.454Z,20.97
2018-02-21T20:14:11.995Z,20.10
2018-02-21T20:16:44.576Z,19.60
2018-02-21T20:19:17.110Z,22.60
2018-02-21T20:21:49.712Z,17.77
2018-02-21T20:24:22.276Z,21.93
2018-02-21T20:26:54.821Z,21.60
2018-02-21T20:29:27.372Z,20.47
2018-02-21T20:31:59.952Z,20.93
2018-02-21T20:34:32.473Z,18.60
2018-02-21T20:37:05.037Z,19.83
2018-02-21T20:39:37.572Z,23.07
2018-02-21T20:42:10.096Z,22.80
2018-02-21T20:44:42.625Z,23.97
2018-02-21T20:47:15.151Z,21.47
2018-02-21T20:49:47.677Z,23.23
2018-02-21T20:52:20.222Z,21.43
2018-02-21T20:54:52.785Z,21.97
2018-02-21T20:57:25.287Z,21.77
2018-02-21T20:59:57.821Z,22.60
2018-02-21T21:02:30.336Z,21.27
2018-02-21T21:05:02.856Z,23.40
2018-02-21T21:07:35.404Z,26.97
2018-02-21T21:10:08.245Z,21.30
2018-02-21T21:12:40.812Z,27.47
2018-02-21T21:15:13.333Z,26.23
2018-02-21T21:17:45.841Z,24.63
2018-02-21T21:20:18.763Z,28.27
2018-02-21T21:22:51.305Z,25.90
2018-02-21T21:25:23.810Z,26.17
2018-02-21T21:27:56.323Z,23.47
2018-02-21T21:30:28.862Z,23.63
2018-02-21T21:33:01.436Z,22.63
2018-02-21T21:35:33.932Z,23.87
2018-02-21T21:38:06.468Z,26.00
2018-02-21T21:40:39.028Z,26.40
2018-02-21T21:43:11.573Z,21.47
2018-02-21T21:45:44.130Z,21.30
2018-02-21T21:48:16.652Z,27.20
2018-02-21T21:50:49.154Z,22.63
2018-02-21T21:53:21.689Z,22.97
2018-02-21T21:55:54.193Z,23.77
2018-02-21T21:58:26.848Z,25.63
2018-02-21T22:00:59.359Z,28.97
2018-02-21T22:03:31.911Z,23.73
2018-02-21T22:06:04.460Z,23.60
2018-02-21T22:08:36.992Z,23.60
2018-02-21T22:11:09.512Z,26.90
2018-02-21T22:13:42.025Z,22.13
2018-02-21T22:16:14.564Z,25.17
2018-02-21T22:18:47.093Z,22.90
2018-02-21T22:21:19.592Z,26.33
2018-02-21T22:23:52.146Z,25.23
2018-02-21T22:26:24.647Z,25.30
2018-02-21T22:28:57.189Z,28.73
2018-02-21T22:31:29.722Z,27.30
2018-02-21T22:34:02.262Z,27.67
2018-02-21T22:36:34.788Z,31.70
2018-02-21T22:39:07.306Z,26.33
2018-02-21T22:41:39.806Z,26.40
2018-02-21T22:44:12.329Z,23.03
2018-02-21T22:46:44.837Z,24.53
2018-02-21T22:49:17.367Z,24.40
2018-02-21T22:51:49.875Z,25.20
2018-02-21T22:54:22.411Z,25.30
2018-02-21T22:56:54.924Z,26.30
2018-02-21T22:59:27.451Z,25.47
2018-02-21T23:01:59.946Z,24.10
2018-02-21T23:04:32.488Z,23.87
2018-02-21T23:07:05.037Z,25.67
2018-02-21T23:09:37.564Z,23.93
2018-02-21T23:12:10.090Z,25.33
2018-02-21T23:14:42.614Z,23.03
2018-02-21T23:17:15.156Z,22.27
2018-02-21T23:19:47.677Z,20.90
2018-02-21T23:22:20.188Z,23.97
2018-02-21T23:24:52.744Z,24.03
2018-02-21T23:27:25.322Z,20.70
2018-02-21T23:29:57.867Z,24.60
2018-02-21T23:32:30.423Z,23.90
2018-02-21T23:35:02.954Z,23.77
2018-02-21T23:37:35.692Z,28.50
2018-02-21T23:40:08.255Z,25.77
2018-02-21T23:42:40.777Z,23.60
2018-02-21T23:45:13.308Z,23.33
2018-02-21T23:47:45.797Z,27.47
2018-02-21T23:50:18.354Z,28.23
2018-02-21T23:52:50.873Z,26.23
2018-02-21T23:55:23.415Z,25.70
2018-02-21T23:57:55.949Z,21.87
